METAR Analyzer

一覧表示

Hello, Guest. (Login)

CYOW/YOW  -  オタワ・マクドナルド・カルティエ

観測日時
2021-01-27 15:00 (UTC) (44分前)
気温
-7
露点
-9
湿数
2
相対湿度
85.6%
QNH
1019.6hPa
推定現地気圧
1005.8hPa
推定海面気圧
1020.7hPa
体感温度
-24.4
(無風時)
-1.7
HI
-9.4
気温前日比
-1
体感温度前日比
-2.9
HI前日比
-0.9
水平視程
>15SM
鉛直視程
データなし
雲底高度
3700ft AGL
V/I
VMC (VFR)
RVR
No RVR data
卓越風
10kt from 300°
ガスト
No gust
降水
報告なし
その他の天気
報告なし
隙間のある(7/8) 層積雲 @ 3700ft AGL

CYOW 271500Z 30010KT 15SM BKN037 M07/M09 A3011 RMK SC7 SLP205

CYUL/YUL  -  モントリオール・ピエール・エリオット・トルドー

観測日時
2021-01-27 15:00 (UTC) (44分前)
気温
-4
露点
-6
湿数
2
相対湿度
85.9%
QNH
1018.6hPa
推定現地気圧
1014.3hPa
推定海面気圧
1018.9hPa
体感温度
-15.6
(無風時)
0.8
HI
-6.1
気温前日比
+3
体感温度前日比
+5.4
HI前日比
+3.5
水平視程
>12SM
鉛直視程
データなし
雲底高度
1200ft AGL
V/I
VMC (VFR)
RVR
No RVR data
卓越風
5kt from 330°
ガスト
No gust
降水
弱い雪
その他の天気
報告なし
隙間のある(6/8) 層積雲 @ 1200ft AGL / 隙間のある(1/8) 層積雲 @ 3000ft AGL / 全天を覆う(1/8) 高積雲 @ 9000ft AGL

CYUL 271500Z 33005KT 12SM -SN BKN012 BKN030 OVC090 M04/M06 A3008 RMK SC6SC1AC1 SLP189

CYVR/YVR  -  バンクーバー

観測日時
2021-01-27 15:13 (UTC) (31分前)
気温
2
露点
1
湿数
1
相対湿度
93.1%
QNH
1000.0hPa
推定現地気圧
999.5hPa
推定海面気圧
1000.0hPa
体感温度
-10.7
(無風時)
5.7
HI
0.7
気温前日比
±0
体感温度前日比
+3.7
HI前日比
±0
水平視程
>12SM
鉛直視程
データなし
雲底高度
5300ft AGL
V/I
VMC (VFR)
RVR
No RVR data
卓越風
7kt from 60°
ガスト
No gust
降水
弱い雨
その他の天気
報告なし
散在する(3/8) 層積雲 @ 4400ft AGL / 全天を覆う(5/8) 層積雲 @ 5300ft AGL

CYVR 271513Z 06007KT 12SM -RA SCT044 OVC053 02/01 A2953 RMK SC3SC5 SLP001

株式会社マネーパートナーズ 【Manepa Card】
9.9msec